sensor_id;sensor_type;location;lat;lon;timestamp;pressure;altitude;pressure_sealevel;temperature;humidity
60465;BME280;46314;52.392;9.758;2022-10-29T00:00:29;101371.78;;;20.07;66.14
60465;BME280;46314;52.392;9.758;2022-10-29T00:02:55;101368.59;;;20.21;65.23
60465;BME280;46314;52.392;9.758;2022-10-29T00:05:22;101376.66;;;19.98;65.69
60465;BME280;46314;52.392;9.758;2022-10-29T00:07:48;101384.22;;;20.18;65.06
60465;BME280;46314;52.392;9.758;2022-10-29T00:10:16;101383.53;;;20.21;64.71
60465;BME280;46314;52.392;9.758;2022-10-29T00:12:43;101385.41;;;20.30;64.61
60465;BME280;46314;52.392;9.758;2022-10-29T00:15:10;101381.84;;;20.08;65.25
60465;BME280;46314;52.392;9.758;2022-10-29T00:17:36;101383.53;;;20.21;65.03
60465;BME280;46314;52.392;9.758;2022-10-29T00:20:04;101374.75;;;20.23;64.78
60465;BME280;46314;52.392;9.758;2022-10-29T00:22:31;101386.56;;;20.16;64.71
60465;BME280;46314;52.392;9.758;2022-10-29T00:24:57;101384.47;;;20.26;64.33
60465;BME280;46314;52.392;9.758;2022-10-29T00:27:26;101377.91;;;20.21;64.54
60465;BME280;46314;52.392;9.758;2022-10-29T00:29:52;101385.41;;;20.30;64.64
60465;BME280;46314;52.392;9.758;2022-10-29T00:32:18;101383.78;;;19.83;66.08
60465;BME280;46314;52.392;9.758;2022-10-29T00:34:45;101384.22;;;20.06;65.43
60465;BME280;46314;52.392;9.758;2022-10-29T00:37:11;101383.72;;;19.92;66.28
60465;BME280;46314;52.392;9.758;2022-10-29T00:39:38;101381.44;;;20.31;64.70
60465;BME280;46314;52.392;9.758;2022-10-29T00:42:04;101381.78;;;20.41;64.87
60465;BME280;46314;52.392;9.758;2022-10-29T00:44:33;101377.06;;;20.33;65.15
60465;BME280;46314;52.392;9.758;2022-10-29T00:47:03;101383.31;;;20.27;65.39
60465;BME280;46314;52.392;9.758;2022-10-29T00:49:37;101379.53;;;19.77;67.03
60465;BME280;46314;52.392;9.758;2022-10-29T00:52:05;101384.53;;;19.92;66.75
60465;BME280;46314;52.392;9.758;2022-10-29T00:54:35;101380.00;;;20.12;66.04
60465;BME280;46314;52.392;9.758;2022-10-29T00:57:07;101386.22;;;20.05;66.09
60465;BME280;46314;52.392;9.758;2022-10-29T00:59:36;101390.47;;;19.78;67.45
60465;BME280;46314;52.392;9.758;2022-10-29T01:02:03;101391.78;;;19.81;67.12
60465;BME280;46314;52.392;9.758;2022-10-29T01:04:30;101395.63;;;19.55;68.64
60465;BME280;46314;52.392;9.758;2022-10-29T01:06:56;101389.22;;;19.88;67.35
60465;BME280;46314;52.392;9.758;2022-10-29T01:09:23;101389.16;;;20.09;66.38
60465;BME280;46314;52.392;9.758;2022-10-29T01:11:58;101389.63;;;20.11;66.07
60465;BME280;46314;52.392;9.758;2022-10-29T01:14:33;101394.41;;;19.98;66.90
60465;BME280;46314;52.392;9.758;2022-10-29T01:17:09;101387.47;;;19.96;66.85
60465;BME280;46314;52.392;9.758;2022-10-29T01:19:59;101393.78;;;19.93;66.93
60465;BME280;46314;52.392;9.758;2022-10-29T01:22:37;101388.41;;;19.88;67.32
60465;BME280;46314;52.392;9.758;2022-10-29T01:25:23;101391.84;;;20.05;66.79
60465;BME280;46314;52.392;9.758;2022-10-29T01:28:05;101384.19;;;19.73;68.14
60465;BME280;46314;52.392;9.758;2022-10-29T01:30:50;101390.16;;;19.71;67.96
60465;BME280;46314;52.392;9.758;2022-10-29T01:33:21;101374.47;;;19.70;68.71
60465;BME280;46314;52.392;9.758;2022-10-29T01:35:56;101386.53;;;19.92;67.62
60465;BME280;46314;52.392;9.758;2022-10-29T01:38:33;101386.41;;;19.67;68.10
60465;BME280;46314;52.392;9.758;2022-10-29T01:41:06;101386.19;;;19.72;68.24
60465;BME280;46314;52.392;9.758;2022-10-29T01:43:37;101397.44;;;19.93;67.31
60465;BME280;46314;52.392;9.758;2022-10-29T01:46:10;101385.53;;;19.75;66.70
60465;BME280;46314;52.392;9.758;2022-10-29T01:48:41;101384.47;;;19.80;68.17
60465;BME280;46314;52.392;9.758;2022-10-29T01:51:13;101383.88;;;19.53;69.47
60465;BME280;46314;52.392;9.758;2022-10-29T01:53:41;101385.16;;;19.56;69.46
60465;BME280;46314;52.392;9.758;2022-10-29T01:56:08;101397.84;;;19.28;70.38
60465;BME280;46314;52.392;9.758;2022-10-29T01:58:35;101392.72;;;19.64;68.83
60465;BME280;46314;52.392;9.758;2022-10-29T02:01:14;101399.31;;;19.47;69.96
60465;BME280;46314;52.392;9.758;2022-10-29T02:03:51;101399.97;;;19.53;69.50
60465;BME280;46314;52.392;9.758;2022-10-29T02:06:31;101401.38;;;19.38;69.72
60465;BME280;46314;52.392;9.758;2022-10-29T02:09:04;101398.78;;;19.54;69.53
60465;BME280;46314;52.392;9.758;2022-10-29T02:11:42;101396.16;;;19.48;69.67
60465;BME280;46314;52.392;9.758;2022-10-29T02:14:14;101392.97;;;19.71;69.02
60465;BME280;46314;52.392;9.758;2022-10-29T02:16:44;101387.84;;;19.52;69.65
60465;BME280;46314;52.392;9.758;2022-10-29T02:19:11;101397.09;;;19.40;70.29
60465;BME280;46314;52.392;9.758;2022-10-29T02:21:37;101408.69;;;19.39;70.37
60465;BME280;46314;52.392;9.758;2022-10-29T02:24:04;101403.19;;;19.42;70.31
60465;BME280;46314;52.392;9.758;2022-10-29T02:26:31;101397.63;;;19.76;69.02
60465;BME280;46314;52.392;9.758;2022-10-29T02:28:58;101398.78;;;19.75;68.65
60465;BME280;46314;52.392;9.758;2022-10-29T02:31:24;101382.94;;;19.28;70.17
60465;BME280;46314;52.392;9.758;2022-10-29T02:33:52;101372.63;;;19.53;69.56
60465;BME280;46314;52.392;9.758;2022-10-29T02:36:18;101373.94;;;19.35;70.37
60465;BME280;46314;52.392;9.758;2022-10-29T02:38:45;101368.25;;;19.43;69.69
60465;BME280;46314;52.392;9.758;2022-10-29T02:41:11;101372.16;;;19.51;69.50
60465;BME280;46314;52.392;9.758;2022-10-29T02:43:38;101364.69;;;19.13;70.72
60465;BME280;46314;52.392;9.758;2022-10-29T02:46:12;101361.88;;;19.34;70.10
60465;BME280;46314;52.392;9.758;2022-10-29T02:48:38;101354.25;;;19.14;70.75
60465;BME280;46314;52.392;9.758;2022-10-29T02:51:06;101353.22;;;19.39;69.87
60465;BME280;46314;52.392;9.758;2022-10-29T02:53:33;101351.88;;;19.03;70.73
60465;BME280;46314;52.392;9.758;2022-10-29T02:55:59;101359.00;;;19.22;70.43
60465;BME280;46314;52.392;9.758;2022-10-29T02:58:26;101357.63;;;18.86;71.82
60465;BME280;46314;52.392;9.758;2022-10-29T03:00:52;101347.56;;;18.76;72.31
60465;BME280;46314;52.392;9.758;2022-10-29T03:03:19;101356.66;;;18.73;72.29
60465;BME280;46314;52.392;9.758;2022-10-29T03:05:45;101359.94;;;19.26;70.61
60465;BME280;46314;52.392;9.758;2022-10-29T03:08:16;101352.47;;;18.88;71.80
60465;BME280;46314;52.392;9.758;2022-10-29T03:10:43;101350.13;;;18.90;71.79
60465;BME280;46314;52.392;9.758;2022-10-29T03:13:10;101348.56;;;19.01;71.53
60465;BME280;46314;52.392;9.758;2022-10-29T03:15:36;101341.22;;;18.88;72.14
60465;BME280;46314;52.392;9.758;2022-10-29T03:18:04;101341.50;;;18.95;71.61
60465;BME280;46314;52.392;9.758;2022-10-29T03:20:30;101340.78;;;18.77;72.17
60465;BME280;46314;52.392;9.758;2022-10-29T03:22:57;101344.06;;;18.79;72.50
60465;BME280;46314;52.392;9.758;2022-10-29T03:25:25;101338.41;;;18.88;71.86
60465;BME280;46314;52.392;9.758;2022-10-29T03:27:51;101339.91;;;18.85;72.16
60465;BME280;46314;52.392;9.758;2022-10-29T03:30:18;101344.13;;;18.41;73.54
60465;BME280;46314;52.392;9.758;2022-10-29T03:32:46;101338.78;;;18.18;74.84
60465;BME280;46314;52.392;9.758;2022-10-29T03:35:14;101336.19;;;18.04;75.47
60465;BME280;46314;52.392;9.758;2022-10-29T03:37:41;101336.53;;;17.85;76.30
60465;BME280;46314;52.392;9.758;2022-10-29T03:40:09;101338.38;;;17.72;76.39
60465;BME280;46314;52.392;9.758;2022-10-29T03:42:38;101342.50;;;17.92;76.31
60465;BME280;46314;52.392;9.758;2022-10-29T03:45:05;101338.19;;;17.95;75.98
60465;BME280;46314;52.392;9.758;2022-10-29T03:47:32;101341.78;;;18.04;75.30
60465;BME280;46314;52.392;9.758;2022-10-29T03:49:59;101346.03;;;18.19;74.84
60465;BME280;46314;52.392;9.758;2022-10-29T03:52:25;101348.84;;;18.19;74.35
60465;BME280;46314;52.392;9.758;2022-10-29T03:54:52;101338.34;;;18.37;74.48
60465;BME280;46314;52.392;9.758;2022-10-29T03:57:18;101350.78;;;18.27;73.95
60465;BME280;46314;52.392;9.758;2022-10-29T03:59:46;101339.16;;;18.38;74.25
60465;BME280;46314;52.392;9.758;2022-10-29T04:02:17;101343.41;;;18.14;74.71
60465;BME280;46314;52.392;9.758;2022-10-29T04:04:44;101343.44;;;18.44;73.81
60465;BME280;46314;52.392;9.758;2022-10-29T04:07:11;101344.25;;;18.14;74.47
60465;BME280;46314;52.392;9.758;2022-10-29T04:09:37;101348.13;;;18.31;73.96
60465;BME280;46314;52.392;9.758;2022-10-29T04:12:04;101355.00;;;18.04;74.69
60465;BME280;46314;52.392;9.758;2022-10-29T04:14:31;101348.88;;;18.49;73.67
60465;BME280;46314;52.392;9.758;2022-10-29T04:16:59;101345.22;;;18.10;74.54
60465;BME280;46314;52.392;9.758;2022-10-29T04:19:25;101350.53;;;18.11;74.81
60465;BME280;46314;52.392;9.758;2022-10-29T04:21:52;101353.75;;;18.31;73.95
60465;BME280;46314;52.392;9.758;2022-10-29T04:24:38;101343.41;;;18.14;74.57
60465;BME280;46314;52.392;9.758;2022-10-29T04:27:25;101347.75;;;17.94;75.18
60465;BME280;46314;52.392;9.758;2022-10-29T04:30:12;101350.25;;;17.95;74.83
60465;BME280;46314;52.392;9.758;2022-10-29T04:32:45;101348.94;;;17.93;74.98
60465;BME280;46314;52.392;9.758;2022-10-29T04:35:11;101352.75;;;17.88;74.88
60465;BME280;46314;52.392;9.758;2022-10-29T04:37:38;101361.31;;;17.83;75.24
60465;BME280;46314;52.392;9.758;2022-10-29T04:40:05;101354.88;;;18.00;74.63
60465;BME280;46314;52.392;9.758;2022-10-29T04:42:34;101354.81;;;18.17;73.68
60465;BME280;46314;52.392;9.758;2022-10-29T04:45:01;101358.00;;;17.98;73.93
60465;BME280;46314;52.392;9.758;2022-10-29T04:47:27;101372.22;;;17.76;75.14
60465;BME280;46314;52.392;9.758;2022-10-29T04:49:55;101365.75;;;18.02;74.45
60465;BME280;46314;52.392;9.758;2022-10-29T04:52:21;101367.69;;;18.10;73.79
60465;BME280;46314;52.392;9.758;2022-10-29T04:54:48;101371.22;;;17.98;73.90
60465;BME280;46314;52.392;9.758;2022-10-29T04:57:14;101369.53;;;18.06;74.29
60465;BME280;46314;52.392;9.758;2022-10-29T04:59:41;101359.34;;;18.01;73.80
60465;BME280;46314;52.392;9.758;2022-10-29T05:02:07;101363.78;;;17.93;74.22
60465;BME280;46314;52.392;9.758;2022-10-29T05:04:35;101358.84;;;17.73;74.78
60465;BME280;46314;52.392;9.758;2022-10-29T05:07:02;101360.19;;;17.67;75.14
60465;BME280;46314;52.392;9.758;2022-10-29T05:09:29;101369.91;;;17.69;74.85
60465;BME280;46314;52.392;9.758;2022-10-29T05:11:55;101355.25;;;17.37;75.96
60465;BME280;46314;52.392;9.758;2022-10-29T05:14:22;101347.50;;;17.52;75.14
60465;BME280;46314;52.392;9.758;2022-10-29T05:16:48;101360.88;;;17.37;75.87
60465;BME280;46314;52.392;9.758;2022-10-29T05:19:14;101367.50;;;17.24;76.43
60465;BME280;46314;52.392;9.758;2022-10-29T05:21:41;101353.16;;;17.34;75.74
60465;BME280;46314;52.392;9.758;2022-10-29T05:24:09;101355.94;;;17.43;75.21
60465;BME280;46314;52.392;9.758;2022-10-29T05:26:35;101372.22;;;17.76;74.50
60465;BME280;46314;52.392;9.758;2022-10-29T05:29:02;101365.66;;;17.54;74.82
60465;BME280;46314;52.392;9.758;2022-10-29T05:31:28;101363.63;;;17.81;74.32
60465;BME280;46314;52.392;9.758;2022-10-29T05:33:55;101365.00;;;17.57;74.47
60465;BME280;46314;52.392;9.758;2022-10-29T05:36:21;101360.63;;;18.04;73.67
60465;BME280;46314;52.392;9.758;2022-10-29T05:38:48;101344.75;;;18.08;73.12
60465;BME280;46314;52.392;9.758;2022-10-29T05:41:15;101356.88;;;17.73;74.20
60465;BME280;46314;52.392;9.758;2022-10-29T05:43:42;101351.91;;;17.96;73.61
60465;BME280;46314;52.392;9.758;2022-10-29T05:46:08;101363.28;;;17.83;74.14
60465;BME280;46314;52.392;9.758;2022-10-29T05:48:35;101370.75;;;17.87;73.43
60465;BME280;46314;52.392;9.758;2022-10-29T05:51:01;101363.66;;;17.64;74.64
60465;BME280;46314;52.392;9.758;2022-10-29T05:53:28;101358.50;;;17.83;73.72
60465;BME280;46314;52.392;9.758;2022-10-29T05:55:54;101376.88;;;17.11;76.50
60465;BME280;46314;52.392;9.758;2022-10-29T05:58:22;101374.41;;;17.35;76.08
60465;BME280;46314;52.392;9.758;2022-10-29T06:00:48;101383.78;;;17.48;75.24
60465;BME280;46314;52.392;9.758;2022-10-29T06:03:17;101389.72;;;17.73;74.14
60465;BME280;46314;52.392;9.758;2022-10-29T06:05:45;101379.97;;;17.96;73.13
60465;BME280;46314;52.392;9.758;2022-10-29T06:08:12;101377.31;;;18.00;73.44
60465;BME280;46314;52.392;9.758;2022-10-29T06:10:38;101380.81;;;17.88;73.41
60465;BME280;46314;52.392;9.758;2022-10-29T06:13:09;101378.59;;;18.11;72.58
60465;BME280;46314;52.392;9.758;2022-10-29T06:15:37;101381.97;;;17.87;73.58
60465;BME280;46314;52.392;9.758;2022-10-29T06:18:04;101384.22;;;18.03;72.77
60465;BME280;46314;52.392;9.758;2022-10-29T06:20:30;101385.38;;;18.10;72.91
60465;BME280;46314;52.392;9.758;2022-10-29T06:22:57;101382.28;;;18.03;72.77
60465;BME280;46314;52.392;9.758;2022-10-29T06:25:25;101390.84;;;18.07;72.91
60465;BME280;46314;52.392;9.758;2022-10-29T06:27:59;101385.16;;;18.33;71.66
60465;BME280;46314;52.392;9.758;2022-10-29T06:30:27;101392.59;;;18.20;72.17
60465;BME280;46314;52.392;9.758;2022-10-29T06:32:55;101393.94;;;18.23;72.18
60465;BME280;46314;52.392;9.758;2022-10-29T06:35:22;101404.00;;;18.24;72.31
60465;BME280;46314;52.392;9.758;2022-10-29T06:37:49;101409.53;;;18.41;71.82
60465;BME280;46314;52.392;9.758;2022-10-29T06:40:15;101409.81;;;18.10;72.78
60465;BME280;46314;52.392;9.758;2022-10-29T06:42:42;101405.53;;;18.04;72.83
60465;BME280;46314;52.392;9.758;2022-10-29T06:45:09;101399.75;;;18.09;73.37
60465;BME280;46314;52.392;9.758;2022-10-29T06:47:39;101395.09;;;18.22;72.77
60465;BME280;46314;52.392;9.758;2022-10-29T06:50:09;101387.16;;;18.15;72.90
60465;BME280;46314;52.392;9.758;2022-10-29T06:52:35;101375.91;;;18.24;72.66
60465;BME280;46314;52.392;9.758;2022-10-29T06:55:03;101373.66;;;18.17;72.97
60465;BME280;46314;52.392;9.758;2022-10-29T06:57:30;101369.91;;;18.34;72.03
60465;BME280;46314;52.392;9.758;2022-10-29T06:59:57;101370.66;;;18.52;71.24
60465;BME280;46314;52.392;9.758;2022-10-29T07:02:30;101370.47;;;18.57;72.03
60465;BME280;46314;52.392;9.758;2022-10-29T07:04:57;101372.97;;;18.50;71.06
60465;BME280;46314;52.392;9.758;2022-10-29T07:07:26;101370.28;;;18.62;70.87
60465;BME280;46314;52.392;9.758;2022-10-29T07:09:53;101376.66;;;18.03;73.30
60465;BME280;46314;52.392;9.758;2022-10-29T07:12:19;101371.13;;;18.24;73.41
60465;BME280;46314;52.392;9.758;2022-10-29T07:14:46;101379.28;;;18.77;70.95
60465;BME280;46314;52.392;9.758;2022-10-29T07:17:12;101387.31;;;18.57;71.44
60465;BME280;46314;52.392;9.758;2022-10-29T07:19:38;101385.84;;;18.21;72.20
60465;BME280;46314;52.392;9.758;2022-10-29T07:22:05;101385.91;;;18.04;73.09
60465;BME280;46314;52.392;9.758;2022-10-29T07:24:33;101391.75;;;18.28;72.84
60465;BME280;46314;52.392;9.758;2022-10-29T07:27:00;101391.69;;;18.46;72.00
60465;BME280;46314;52.392;9.758;2022-10-29T07:29:26;101390.84;;;18.07;73.24
60465;BME280;46314;52.392;9.758;2022-10-29T07:31:53;101375.72;;;18.29;72.84
60465;BME280;46314;52.392;9.758;2022-10-29T07:34:19;101380.38;;;18.25;72.41
60465;BME280;46314;52.392;9.758;2022-10-29T07:36:45;101387.28;;;18.27;72.47
60465;BME280;46314;52.392;9.758;2022-10-29T07:39:12;101382.63;;;18.40;72.21
60465;BME280;46314;52.392;9.758;2022-10-29T07:41:40;101384.66;;;18.61;71.44
60465;BME280;46314;52.392;9.758;2022-10-29T07:44:06;101381.53;;;18.62;71.22
60465;BME280;46314;52.392;9.758;2022-10-29T07:46:33;101383.47;;;18.32;72.85
60465;BME280;46314;52.392;9.758;2022-10-29T07:48:59;101380.47;;;18.76;71.27
60465;BME280;46314;52.392;9.758;2022-10-29T07:51:26;101383.47;;;18.70;70.81
60465;BME280;46314;52.392;9.758;2022-10-29T07:53:52;101380.56;;;18.58;71.09
60465;BME280;46314;52.392;9.758;2022-10-29T07:56:18;101372.38;;;18.74;70.93
60465;BME280;46314;52.392;9.758;2022-10-29T07:58:46;101366.72;;;18.83;70.77
60465;BME280;46314;52.392;9.758;2022-10-29T08:01:13;101365.59;;;18.75;70.71
60465;BME280;46314;52.392;9.758;2022-10-29T08:03:39;101369.31;;;18.58;72.02
60465;BME280;46314;52.392;9.758;2022-10-29T08:06:06;101370.88;;;18.47;72.20
60465;BME280;46314;52.392;9.758;2022-10-29T08:08:32;101372.16;;;18.49;71.83
60465;BME280;46314;52.392;9.758;2022-10-29T08:11:00;101377.03;;;18.70;71.09
60465;BME280;46314;52.392;9.758;2022-10-29T08:13:27;101381.72;;;18.57;72.20
60465;BME280;46314;52.392;9.758;2022-10-29T08:15:56;101371.53;;;18.44;71.69
60465;BME280;46314;52.392;9.758;2022-10-29T08:18:22;101377.38;;;18.68;72.00
60465;BME280;46314;52.392;9.758;2022-10-29T08:20:49;101370.81;;;18.55;71.85
60465;BME280;46314;52.392;9.758;2022-10-29T08:23:15;101370.19;;;18.80;70.98
60465;BME280;46314;52.392;9.758;2022-10-29T08:25:42;101375.44;;;18.90;71.72
60465;BME280;46314;52.392;9.758;2022-10-29T08:28:10;101372.72;;;19.02;70.55
60465;BME280;46314;52.392;9.758;2022-10-29T08:30:37;101369.22;;;19.26;69.88
60465;BME280;46314;52.392;9.758;2022-10-29T08:33:05;101382.16;;;19.40;70.27
60465;BME280;46314;52.392;9.758;2022-10-29T08:35:32;101376.47;;;19.06;70.96
60465;BME280;46314;52.392;9.758;2022-10-29T08:37:59;101368.38;;;19.26;70.84
60465;BME280;46314;52.392;9.758;2022-10-29T08:40:31;101362.06;;;19.29;71.03
60465;BME280;46314;52.392;9.758;2022-10-29T08:43:21;101369.53;;;18.83;72.64
60465;BME280;46314;52.392;9.758;2022-10-29T08:45:53;101379.47;;;19.01;72.08
60465;BME280;46314;52.392;9.758;2022-10-29T08:48:34;101374.19;;;19.29;69.65
60465;BME280;46314;52.392;9.758;2022-10-29T08:51:07;101367.91;;;19.24;70.58
60465;BME280;46314;52.392;9.758;2022-10-29T08:53:37;101358.59;;;19.32;70.18
60465;BME280;46314;52.392;9.758;2022-10-29T08:56:06;101370.66;;;19.87;68.78
60465;BME280;46314;52.392;9.758;2022-10-29T08:58:44;101366.72;;;20.00;67.22
60465;BME280;46314;52.392;9.758;2022-10-29T09:01:21;101367.31;;;20.18;66.52
60465;BME280;46314;52.392;9.758;2022-10-29T09:03:50;101357.44;;;19.33;69.57
60465;BME280;46314;52.392;9.758;2022-10-29T09:06:21;101358.00;;;19.81;68.68
60465;BME280;46314;52.392;9.758;2022-10-29T09:08:59;101359.38;;;19.75;68.09
60465;BME280;46314;52.392;9.758;2022-10-29T09:11:39;101360.56;;;20.44;65.66
60465;BME280;46314;52.392;9.758;2022-10-29T09:14:23;101353.50;;;20.38;65.93
60465;BME280;46314;52.392;9.758;2022-10-29T09:16:57;101356.41;;;20.29;65.55
60465;BME280;46314;52.392;9.758;2022-10-29T09:19:37;101356.44;;;20.54;65.47
60465;BME280;46314;52.392;9.758;2022-10-29T09:22:13;101349.38;;;20.23;66.87
60465;BME280;46314;52.392;9.758;2022-10-29T09:24:48;101357.38;;;20.58;65.06
60465;BME280;46314;52.392;9.758;2022-10-29T09:27:21;101358.63;;;20.11;67.69
60465;BME280;46314;52.392;9.758;2022-10-29T09:30:00;101355.69;;;20.08;66.29
60465;BME280;46314;52.392;9.758;2022-10-29T09:32:31;101364.06;;;20.29;66.22
60465;BME280;46314;52.392;9.758;2022-10-29T09:35:03;101366.31;;;19.56;69.98
60465;BME280;46314;52.392;9.758;2022-10-29T09:37:37;101367.69;;;20.17;67.06
60465;BME280;46314;52.392;9.758;2022-10-29T09:40:14;101370.03;;;20.27;67.29
60465;BME280;46314;52.392;9.758;2022-10-29T09:42:43;101366.44;;;20.64;65.64
60465;BME280;46314;52.392;9.758;2022-10-29T09:45:13;101382.38;;;20.84;63.61
60465;BME280;46314;52.392;9.758;2022-10-29T09:47:47;101364.28;;;20.97;63.14
60465;BME280;46314;52.392;9.758;2022-10-29T09:50:24;101368.28;;;20.59;65.60
60465;BME280;46314;52.392;9.758;2022-10-29T09:52:53;101361.63;;;20.76;64.48
60465;BME280;46314;52.392;9.758;2022-10-29T09:55:22;101359.00;;;20.96;63.42
60465;BME280;46314;52.392;9.758;2022-10-29T09:57:49;101351.38;;;20.47;65.57
60465;BME280;46314;52.392;9.758;2022-10-29T10:00:21;101339.63;;;20.57;63.87
60465;BME280;46314;52.392;9.758;2022-10-29T10:02:51;101338.69;;;20.29;65.30
60465;BME280;46314;52.392;9.758;2022-10-29T10:05:25;101341.19;;;20.42;64.58
60465;BME280;46314;52.392;9.758;2022-10-29T10:08:07;101344.31;;;20.90;62.97
60465;BME280;46314;52.392;9.758;2022-10-29T10:10:35;101351.31;;;21.09;62.98
60465;BME280;46314;52.392;9.758;2022-10-29T10:13:05;101345.22;;;21.07;63.14
60465;BME280;46314;52.392;9.758;2022-10-29T10:15:33;101330.72;;;20.18;66.49
60465;BME280;46314;52.392;9.758;2022-10-29T10:18:02;101325.53;;;20.33;66.42
60465;BME280;46314;52.392;9.758;2022-10-29T10:20:34;101330.78;;;20.96;63.81
60465;BME280;46314;52.392;9.758;2022-10-29T10:23:01;101332.16;;;20.61;65.35
60465;BME280;46314;52.392;9.758;2022-10-29T10:25:35;101330.72;;;20.80;63.15
60465;BME280;46314;52.392;9.758;2022-10-29T10:28:13;101330.59;;;20.15;65.62
60465;BME280;46314;52.392;9.758;2022-10-29T10:33:11;101337.59;;;19.96;66.29
60465;BME280;46314;52.392;9.758;2022-10-29T10:35:53;101332.78;;;19.84;66.70
60465;BME280;46314;52.392;9.758;2022-10-29T10:38:20;101326.47;;;20.00;66.51
60465;BME280;46314;52.392;9.758;2022-10-29T10:40:54;101313.91;;;19.97;66.68
60465;BME280;46314;52.392;9.758;2022-10-29T10:43:22;101307.13;;;20.23;64.89
60465;BME280;46314;52.392;9.758;2022-10-29T10:45:53;101307.25;;;20.64;63.99
60465;BME280;46314;52.392;9.758;2022-10-29T10:48:22;101299.22;;;20.90;62.73
60465;BME280;46314;52.392;9.758;2022-10-29T10:51:19;101303.44;;;20.59;63.21
60465;BME280;46314;52.392;9.758;2022-10-29T10:53:49;101294.78;;;20.65;64.67
60465;BME280;46314;52.392;9.758;2022-10-29T10:56:18;101294.19;;;20.47;65.40
60465;BME280;46314;52.392;9.758;2022-10-29T10:58:50;101290.81;;;20.04;65.77
60465;BME280;46314;52.392;9.758;2022-10-29T11:01:24;101292.75;;;20.90;62.84
60465;BME280;46314;52.392;9.758;2022-10-29T11:03:57;101280.56;;;20.61;63.98
60465;BME280;46314;52.392;9.758;2022-10-29T11:06:30;101277.66;;;20.98;63.17
60465;BME280;46314;52.392;9.758;2022-10-29T11:09:04;101273.69;;;21.71;60.35
60465;BME280;46314;52.392;9.758;2022-10-29T11:11:34;101271.25;;;21.70;59.97
60465;BME280;46314;52.392;9.758;2022-10-29T11:14:06;101263.50;;;21.38;60.74
60465;BME280;46314;52.392;9.758;2022-10-29T11:16:38;101278.81;;;21.82;59.15
60465;BME280;46314;52.392;9.758;2022-10-29T11:19:13;101277.63;;;21.38;60.67
60465;BME280;46314;52.392;9.758;2022-10-29T11:21:45;101279.63;;;20.69;62.83
60465;BME280;46314;52.392;9.758;2022-10-29T11:24:17;101262.84;;;21.01;61.79
60465;BME280;46314;52.392;9.758;2022-10-29T11:26:47;101265.94;;;20.96;62.61
60465;BME280;46314;52.392;9.758;2022-10-29T11:29:21;101261.53;;;20.83;63.30
60465;BME280;46314;52.392;9.758;2022-10-29T11:31:55;101258.34;;;21.12;61.84
60465;BME280;46314;52.392;9.758;2022-10-29T11:34:42;101250.94;;;21.36;61.28
60465;BME280;46314;52.392;9.758;2022-10-29T11:37:20;101254.34;;;21.13;62.43
60465;BME280;46314;52.392;9.758;2022-10-29T11:39:52;101256.00;;;20.86;63.10
60465;BME280;46314;52.392;9.758;2022-10-29T11:42:20;101249.00;;;20.96;62.92
60465;BME280;46314;52.392;9.758;2022-10-29T11:44:47;101251.38;;;21.50;61.19
60465;BME280;46314;52.392;9.758;2022-10-29T11:47:25;101252.13;;;21.07;62.16
60465;BME280;46314;52.392;9.758;2022-10-29T11:50:08;101250.34;;;20.86;63.36
60465;BME280;46314;52.392;9.758;2022-10-29T11:52:43;101249.09;;;20.99;63.45
60465;BME280;46314;52.392;9.758;2022-10-29T11:55:19;101258.97;;;20.65;65.37
60465;BME280;46314;52.392;9.758;2022-10-29T11:57:51;101256.84;;;21.91;60.41
60465;BME280;46314;52.392;9.758;2022-10-29T12:00:22;101252.47;;;20.77;62.81
60465;BME280;46314;52.392;9.758;2022-10-29T12:06:01;101243.25;;;21.21;61.36
60465;BME280;46314;52.392;9.758;2022-10-29T12:08:44;101234.97;;;21.72;59.58
60465;BME280;46314;52.392;9.758;2022-10-29T12:11:18;101235.25;;;21.83;59.36
60465;BME280;46314;52.392;9.758;2022-10-29T12:13:54;101228.81;;;22.49;57.09
60465;BME280;46314;52.392;9.758;2022-10-29T12:16:35;101222.34;;;21.82;58.00
60465;BME280;46314;52.392;9.758;2022-10-29T12:19:13;101218.78;;;22.01;59.33
60465;BME280;46314;52.392;9.758;2022-10-29T12:21:49;101219.31;;;21.14;61.42
60465;BME280;46314;52.392;9.758;2022-10-29T12:24:30;101205.13;;;20.83;62.39
60465;BME280;46314;52.392;9.758;2022-10-29T12:27:07;101210.44;;;20.72;62.18
60465;BME280;46314;52.392;9.758;2022-10-29T12:29:42;101191.28;;;21.06;62.74
60465;BME280;46314;52.392;9.758;2022-10-29T12:32:14;101185.38;;;21.11;62.14
60465;BME280;46314;52.392;9.758;2022-10-29T12:34:52;101188.59;;;21.25;61.60
60465;BME280;46314;52.392;9.758;2022-10-29T12:37:24;101172.78;;;21.08;63.45
60465;BME280;46314;52.392;9.758;2022-10-29T12:39:58;101170.38;;;21.38;61.86
60465;BME280;46314;52.392;9.758;2022-10-29T12:42:26;101165.06;;;21.65;61.29
60465;BME280;46314;52.392;9.758;2022-10-29T12:45:01;101161.47;;;21.68;60.70
60465;BME280;46314;52.392;9.758;2022-10-29T12:47:35;101160.84;;;21.75;60.79
60465;BME280;46314;52.392;9.758;2022-10-29T12:50:12;101160.53;;;21.96;59.70
60465;BME280;46314;52.392;9.758;2022-10-29T12:52:46;101167.09;;;21.36;61.71
60465;BME280;46314;52.392;9.758;2022-10-29T12:55:16;101175.75;;;21.91;59.47
60465;BME280;46314;52.392;9.758;2022-10-29T12:57:43;101171.88;;;21.64;60.32
60465;BME280;46314;52.392;9.758;2022-10-29T13:00:32;101164.75;;;21.70;60.54
60465;BME280;46314;52.392;9.758;2022-10-29T13:02:59;101163.66;;;22.26;59.08
60465;BME280;46314;52.392;9.758;2022-10-29T13:05:38;101159.31;;;21.78;61.54
60465;BME280;46314;52.392;9.758;2022-10-29T13:08:16;101150.41;;;21.95;59.29
60465;BME280;46314;52.392;9.758;2022-10-29T13:10:55;101146.94;;;22.02;59.21